Pocataligo, South Carolina
Current Conditions -  °F | °C
As of 9:56 PM on Sunday 23 Nov 2014 (Local Time) from KNBC Reporting Station
Light Rain Light Rain  
Wind Chill: 68°   Ceiling: 11000
Heat Index: 68°   Visibility: 10mi
Dew Point: 66°   Wind: 5mph
Humidity: 93%   Direction: 220°SW
Pressure: 29.87"   Gusts: NA
Location:  32.642°N, 80.8085°W
Report Text: KNBC 240256Z AUTO 22004KT 10SM -RA FEW050 SCT090 BKN110 20/19 A2987 RMK AO2 PK WND 29028/0228 WSHFT 0213 RAB22 TSB13B18E50 PRESFR SLP115 P0023 60058 T02000189 53003 $
Loading
Personal Weather Stations






























Interactive Weather Map New forecast layout! Learn more

10-Day Weather Forecast

Advertisements
Track Severe Weather on mobile